createdAt,value
2017-02-26T00:00:23.885Z,18.94
2017-02-26T00:01:33.848Z,18.91
2017-02-26T00:02:44.744Z,18.91
2017-02-26T00:03:55.089Z,18.94
2017-02-26T00:05:05.719Z,18.89
2017-02-26T00:06:16.095Z,18.91
2017-02-26T00:07:26.837Z,18.94
2017-02-26T00:08:37.569Z,18.92
2017-02-26T00:09:47.552Z,18.88
2017-02-26T00:10:58.584Z,18.98
2017-02-26T00:12:08.917Z,19
2017-02-26T00:13:18.451Z,18.91
2017-02-26T00:14:28.803Z,18.91
2017-02-26T00:15:38.733Z,18.96
2017-02-26T00:16:48.942Z,19.01
2017-02-26T00:17:59.299Z,18.91
2017-02-26T00:19:10.040Z,18.94
2017-02-26T00:20:20.768Z,18.94
2017-02-26T00:21:30.297Z,18.97
2017-02-26T00:22:41.293Z,18.98
2017-02-26T00:23:52.055Z,18.92
2017-02-26T00:25:02.008Z,18.89
2017-02-26T00:26:12.342Z,18.91
2017-02-26T00:27:22.672Z,18.88
2017-02-26T00:28:32.855Z,18.85
2017-02-26T00:29:43.245Z,18.92
2017-02-26T00:30:53.205Z,18.92
2017-02-26T00:32:03.537Z,18.89
2017-02-26T00:33:13.492Z,18.96
2017-02-26T00:34:24.077Z,18.92
2017-02-26T00:35:34.005Z,18.96
2017-02-26T00:36:44.349Z,18.98
2017-02-26T00:37:54.697Z,18.85
2017-02-26T00:39:05.029Z,18.94
2017-02-26T00:40:15.206Z,18.88
2017-02-26T00:41:25.543Z,18.88
2017-02-26T00:42:35.941Z,18.92
2017-02-26T00:43:45.889Z,18.88
2017-02-26T00:44:55.831Z,19.05
2017-02-26T00:46:06.418Z,18.98
2017-02-26T00:47:16.369Z,18.92
2017-02-26T00:48:26.705Z,18.94
2017-02-26T00:49:36.661Z,18.98
2017-02-26T00:50:46.601Z,18.98
2017-02-26T00:51:56.783Z,18.94
2017-02-26T00:53:07.528Z,18.88
2017-02-26T00:54:17.475Z,18.91
2017-02-26T00:55:27.021Z,18.91
2017-02-26T00:56:36.986Z,18.94
2017-02-26T00:57:47.955Z,19
2017-02-26T00:58:58.283Z,18.91
2017-02-26T01:00:08.615Z,18.86
2017-02-26T01:01:18.172Z,18.89
2017-02-26T01:02:28.540Z,18.92
2017-02-26T01:03:38.349Z,18.92
2017-02-26T01:04:48.275Z,18.94
2017-02-26T01:05:59.237Z,19
2017-02-26T01:07:09.974Z,18.98
2017-02-26T01:08:20.291Z,18.96
2017-02-26T01:09:31.325Z,18.92
2017-02-26T01:10:42.054Z,18.85
2017-02-26T01:11:52.400Z,18.94
2017-02-26T01:13:02.729Z,18.94
2017-02-26T01:14:12.672Z,19.04
2017-02-26T01:15:22.912Z,19.05
2017-02-26T01:16:33.638Z,18.96
2017-02-26T01:17:44.358Z,18.91
2017-02-26T01:18:54.287Z,19.05
2017-02-26T01:20:04.233Z,18.94
2017-02-26T01:21:14.815Z,19.05
2017-02-26T01:22:25.145Z,18.91
2017-02-26T01:23:35.901Z,18.96
2017-02-26T01:24:45.852Z,19.01
2017-02-26T01:25:54.993Z,19.01
2017-02-26T01:27:04.815Z,18.88
2017-02-26T01:28:14.492Z,19.04
2017-02-26T01:29:24.442Z,18.96
2017-02-26T01:30:33.584Z,18.98
2017-02-26T01:31:44.297Z,18.96
2017-02-26T01:32:54.092Z,19.01
2017-02-26T01:34:04.034Z,19.01
2017-02-26T01:35:14.376Z,18.92
2017-02-26T01:36:24.691Z,19.01
2017-02-26T01:37:34.646Z,19.01
2017-02-26T01:38:44.905Z,19.01
2017-02-26T01:39:55.631Z,19.01
2017-02-26T01:41:05.983Z,19.04
2017-02-26T01:42:16.323Z,19.01
2017-02-26T01:43:26.290Z,19.01
2017-02-26T01:44:36.904Z,19.04
2017-02-26T01:45:47.224Z,19
2017-02-26T01:46:57.561Z,19.05
2017-02-26T01:48:08.312Z,18.98
2017-02-26T01:49:18.642Z,19.01
2017-02-26T01:50:29.249Z,18.98
2017-02-26T01:51:39.195Z,19
2017-02-26T01:52:49.142Z,18.98
2017-02-26T01:53:59.884Z,19
2017-02-26T01:55:10.220Z,18.98
2017-02-26T01:56:21.200Z,19.01
2017-02-26T01:57:31.518Z,18.92
2017-02-26T01:58:41.471Z,18.97
2017-02-26T01:59:52.223Z,19
2017-02-26T02:01:02.165Z,18.97
2017-02-26T02:02:12.376Z,19.01
2017-02-26T02:03:22.331Z,19
2017-02-26T02:04:32.273Z,19
2017-02-26T02:05:42.606Z,19.05
2017-02-26T02:06:52.977Z,18.92
2017-02-26T02:08:03.593Z,18.98
2017-02-26T02:09:13.535Z,19
2017-02-26T02:10:23.876Z,19.01
2017-02-26T02:11:34.212Z,18.94
2017-02-26T02:12:43.760Z,19.04
2017-02-26T02:13:54.342Z,19.08
2017-02-26T02:15:05.091Z,19.04
2017-02-26T02:16:15.450Z,18.97
2017-02-26T02:17:25.405Z,18.97
2017-02-26T02:18:35.739Z,19.01
2017-02-26T02:19:46.324Z,18.98
2017-02-26T02:20:56.247Z,19.11
2017-02-26T02:22:05.788Z,19.07
2017-02-26T02:23:16.529Z,19.05
2017-02-26T02:24:26.458Z,18.94
2017-02-26T02:25:37.118Z,19.08
2017-02-26T02:26:47.447Z,19
2017-02-26T02:27:57.795Z,19.05
2017-02-26T02:29:08.511Z,19.01
2017-02-26T02:30:18.839Z,19
2017-02-26T02:31:29.827Z,18.97
2017-02-26T02:32:39.767Z,19
2017-02-26T02:33:50.087Z,18.97
2017-02-26T02:34:59.642Z,19.05
2017-02-26T02:36:09.204Z,18.97
2017-02-26T02:37:20.189Z,19
2017-02-26T02:38:30.516Z,19.07
2017-02-26T02:39:40.458Z,19
2017-02-26T02:40:50.798Z,19
2017-02-26T02:42:01.539Z,19
2017-02-26T02:43:11.378Z,18.92
2017-02-26T02:44:20.928Z,18.98
2017-02-26T02:45:30.850Z,19.07
2017-02-26T02:46:41.571Z,19.05
2017-02-26T02:47:52.320Z,19.04
2017-02-26T02:49:02.968Z,19.04
2017-02-26T02:50:12.909Z,18.92
2017-02-26T02:51:22.480Z,19.01
2017-02-26T02:52:32.434Z,19.01
2017-02-26T02:53:42.372Z,19.04
2017-02-26T02:54:53.015Z,19
2017-02-26T02:56:02.956Z,19.07
2017-02-26T02:57:12.889Z,19.07
2017-02-26T02:58:22.862Z,19.05
2017-02-26T02:59:32.410Z,19.04
2017-02-26T03:00:43.440Z,19.08
2017-02-26T03:01:53.782Z,19.01
2017-02-26T03:03:03.718Z,19.04
2017-02-26T03:04:14.455Z,19.04
2017-02-26T03:05:25.188Z,19.05
2017-02-26T03:06:35.413Z,19
2017-02-26T03:07:45.366Z,19.01
2017-02-26T03:08:55.741Z,19.01
2017-02-26T03:10:05.300Z,18.97
2017-02-26T03:11:16.056Z,19.05
2017-02-26T03:12:26.681Z,19.01
2017-02-26T03:13:37.402Z,18.98
2017-02-26T03:14:47.734Z,19
2017-02-26T03:15:58.079Z,19.05
2017-02-26T03:17:08.017Z,19.04
2017-02-26T03:18:19.002Z,19.04
2017-02-26T03:19:29.341Z,19.04
2017-02-26T03:20:40.074Z,19.04
2017-02-26T03:21:50.816Z,19.01
2017-02-26T03:23:01.532Z,19.09
2017-02-26T03:24:11.728Z,19.01
2017-02-26T03:25:21.680Z,18.96
2017-02-26T03:26:31.222Z,19.08
2017-02-26T03:27:41.174Z,19.07
2017-02-26T03:28:51.097Z,19.07
2017-02-26T03:30:00.890Z,19.01
2017-02-26T03:31:11.618Z,19.07
2017-02-26T03:32:21.557Z,19.11
2017-02-26T03:33:31.517Z,19.09
2017-02-26T03:34:42.258Z,19.07
2017-02-26T03:35:52.439Z,19.07
2017-02-26T03:37:02.774Z,19
2017-02-26T03:38:12.716Z,19.01
2017-02-26T03:39:23.044Z,18.96
2017-02-26T03:40:33.771Z,18.98
2017-02-26T03:41:44.031Z,19.07
2017-02-26T03:42:54.396Z,19.07
2017-02-26T03:44:04.716Z,19.05
2017-02-26T03:45:14.665Z,19.11
2017-02-26T03:46:24.997Z,19.04
2017-02-26T03:47:35.590Z,19.04
2017-02-26T03:48:45.522Z,19.08
2017-02-26T03:49:55.464Z,19.01
2017-02-26T03:51:05.817Z,19.05
2017-02-26T03:52:15.765Z,19.08
2017-02-26T03:53:25.981Z,19.07
2017-02-26T03:54:35.919Z,19.07
2017-02-26T03:55:45.913Z,19.01
2017-02-26T03:56:56.245Z,19.05
2017-02-26T03:58:06.971Z,19.01
2017-02-26T03:59:17.953Z,19
2017-02-26T04:00:27.893Z,19.04
2017-02-26T04:01:37.855Z,18.98
2017-02-26T04:02:48.601Z,18.98
2017-02-26T04:03:58.927Z,18.92
2017-02-26T04:05:09.099Z,19.07
2017-02-26T04:06:19.848Z,19
2017-02-26T04:07:29.400Z,19.07
2017-02-26T04:08:39.356Z,19.05
2017-02-26T04:09:49.699Z,19.08
2017-02-26T04:11:00.319Z,18.97
2017-02-26T04:12:10.690Z,19.05
2017-02-26T04:13:21.034Z,19
2017-02-26T04:14:31.387Z,19.07
2017-02-26T04:15:42.099Z,19
2017-02-26T04:16:51.896Z,19.04
2017-02-26T04:18:01.833Z,18.97
2017-02-26T04:19:11.771Z,19.01
2017-02-26T04:20:21.320Z,19
2017-02-26T04:21:31.644Z,19.07
2017-02-26T04:22:42.636Z,18.98
2017-02-26T04:23:52.972Z,19.01
2017-02-26T04:25:03.305Z,19
2017-02-26T04:26:13.295Z,19.05
2017-02-26T04:27:23.631Z,19.07
2017-02-26T04:28:34.262Z,18.98
2017-02-26T04:29:44.604Z,19.04
2017-02-26T04:30:54.557Z,19.01
2017-02-26T04:32:04.495Z,19.08
2017-02-26T04:33:14.808Z,19
2017-02-26T04:34:24.620Z,19.09
2017-02-26T04:35:35.370Z,18.97
2017-02-26T04:36:44.931Z,19.08
2017-02-26T04:37:54.473Z,19
2017-02-26T04:39:04.802Z,19.05
2017-02-26T04:40:15.435Z,19.05
2017-02-26T04:41:25.772Z,19.05
2017-02-26T04:42:35.704Z,19.07
2017-02-26T04:43:46.043Z,19.07
2017-02-26T04:44:56.366Z,19.12
2017-02-26T04:46:06.601Z,19.04
2017-02-26T04:47:16.927Z,19.11
2017-02-26T04:48:27.298Z,19.01
2017-02-26T04:49:38.056Z,19.04
2017-02-26T04:50:48.408Z,19.07
2017-02-26T04:51:59.023Z,19.07
2017-02-26T04:53:09.347Z,19.05
2017-02-26T04:54:19.691Z,19.08
2017-02-26T04:55:30.440Z,19.05
2017-02-26T04:56:40.790Z,19.05
2017-02-26T04:57:50.213Z,19.05
2017-02-26T04:59:00.953Z,19.07
2017-02-26T05:00:11.666Z,19.08
2017-02-26T05:01:22.375Z,19.08
2017-02-26T05:02:31.965Z,19.01
2017-02-26T05:03:42.959Z,19.04
2017-02-26T05:04:52.908Z,19.11
2017-02-26T05:06:02.918Z,19.11
2017-02-26T05:07:13.256Z,19
2017-02-26T05:08:23.580Z,19.05
2017-02-26T05:09:33.814Z,19.05
2017-02-26T05:10:43.770Z,19.05
2017-02-26T05:11:54.112Z,19.05
2017-02-26T05:13:04.054Z,19.07
2017-02-26T05:14:14.831Z,19
2017-02-26T05:15:24.620Z,19.05
2017-02-26T05:16:34.962Z,18.97
2017-02-26T05:17:45.346Z,19
2017-02-26T05:18:55.276Z,19.01
2017-02-26T05:20:05.593Z,19
2017-02-26T05:21:15.046Z,19.01
2017-02-26T05:22:25.382Z,19.05
2017-02-26T05:23:35.334Z,18.96
2017-02-26T05:24:45.669Z,19.08
2017-02-26T05:25:55.222Z,19.04
2017-02-26T05:27:05.478Z,18.98
2017-02-26T05:28:15.404Z,19.01
2017-02-26T05:29:25.346Z,18.98
2017-02-26T05:30:35.677Z,19.01
2017-02-26T05:31:46.395Z,18.91
2017-02-26T05:32:56.994Z,18.89
2017-02-26T05:34:06.545Z,18.97
2017-02-26T05:35:17.264Z,19.04
2017-02-26T05:36:28.010Z,19.04
2017-02-26T05:37:38.729Z,18.97
2017-02-26T05:38:49.388Z,19.04
2017-02-26T05:39:59.708Z,18.96
2017-02-26T05:41:10.054Z,19.04
2017-02-26T05:42:20.776Z,19.05
2017-02-26T05:43:30.710Z,19
2017-02-26T05:44:41.325Z,19
2017-02-26T05:45:51.696Z,18.98
2017-02-26T05:47:02.025Z,18.96
2017-02-26T05:48:11.567Z,18.96
2017-02-26T05:49:21.903Z,19.01
2017-02-26T05:50:32.153Z,18.98
2017-02-26T05:51:41.322Z,19.01
2017-02-26T05:52:51.263Z,19.05
2017-02-26T05:54:01.201Z,19.04
2017-02-26T05:55:11.167Z,18.89
2017-02-26T05:56:21.755Z,18.98
2017-02-26T05:57:32.112Z,19.04
2017-02-26T05:58:42.155Z,19.04
2017-02-26T05:59:52.105Z,18.96
2017-02-26T06:01:02.844Z,19.04
2017-02-26T06:02:13.874Z,18.97
2017-02-26T06:03:23.407Z,19.04
2017-02-26T06:04:33.355Z,18.96
2017-02-26T06:05:43.687Z,18.97
2017-02-26T06:06:53.614Z,18.96
2017-02-26T06:08:03.794Z,18.96
2017-02-26T06:09:13.753Z,18.91
2017-02-26T06:10:24.490Z,19.01
2017-02-26T06:11:34.815Z,19
2017-02-26T06:12:44.780Z,18.98
2017-02-26T06:13:55.372Z,18.98
2017-02-26T06:15:06.105Z,18.98
2017-02-26T06:16:16.434Z,18.98
2017-02-26T06:17:26.825Z,19.04
2017-02-26T06:18:37.154Z,18.94
2017-02-26T06:19:46.988Z,18.98
2017-02-26T06:20:57.513Z,18.91
2017-02-26T06:22:08.265Z,18.96
2017-02-26T06:23:18.211Z,18.94
2017-02-26T06:24:28.945Z,19
2017-02-26T06:25:39.915Z,18.94
2017-02-26T06:26:49.865Z,18.94
2017-02-26T06:28:00.207Z,18.98
2017-02-26T06:29:10.178Z,18.98
2017-02-26T06:30:20.128Z,18.94
2017-02-26T06:31:30.720Z,19.01
2017-02-26T06:32:40.678Z,19
2017-02-26T06:33:51.032Z,19
2017-02-26T06:35:01.385Z,18.96
2017-02-26T06:36:11.333Z,19.04
2017-02-26T06:37:22.353Z,19
2017-02-26T06:38:33.089Z,18.88
2017-02-26T06:39:43.813Z,18.98
2017-02-26T06:40:54.179Z,19
2017-02-26T06:42:04.908Z,19.05
2017-02-26T06:43:15.125Z,19
2017-02-26T06:44:25.858Z,18.91
2017-02-26T06:45:35.795Z,18.91
2017-02-26T06:46:46.126Z,18.89
2017-02-26T06:47:56.878Z,18.97
2017-02-26T06:49:07.481Z,18.94
2017-02-26T06:50:17.456Z,18.96
2017-02-26T06:51:27.794Z,18.92
2017-02-26T06:52:37.734Z,18.88
2017-02-26T06:53:47.663Z,18.94
2017-02-26T06:54:58.526Z,18.88
2017-02-26T06:56:08.075Z,18.92
2017-02-26T06:57:18.003Z,18.91
2017-02-26T06:58:28.354Z,18.92
2017-02-26T06:59:39.109Z,18.91
2017-02-26T07:00:49.679Z,18.94
2017-02-26T07:02:00.405Z,18.91
2017-02-26T07:03:10.367Z,18.97
2017-02-26T07:04:21.075Z,18.94
2017-02-26T07:05:31.426Z,18.92
2017-02-26T07:06:42.422Z,18.92
2017-02-26T07:07:52.387Z,18.94
2017-02-26T07:09:02.722Z,19.04
2017-02-26T07:10:13.436Z,19.04
2017-02-26T07:11:23.768Z,19.01
2017-02-26T07:12:34.012Z,19.04
2017-02-26T07:13:44.770Z,18.88
2017-02-26T07:14:54.315Z,18.94
2017-02-26T07:16:05.060Z,18.98
2017-02-26T07:17:15.795Z,18.98
2017-02-26T07:18:25.608Z,19
2017-02-26T07:19:35.945Z,19.05
2017-02-26T07:20:46.268Z,18.94
2017-02-26T07:21:56.975Z,19.01
2017-02-26T07:23:07.331Z,19.01
2017-02-26T07:24:17.916Z,19.01
2017-02-26T07:25:28.680Z,19.05
2017-02-26T07:26:38.603Z,18.98
2017-02-26T07:27:49.326Z,18.96
2017-02-26T07:29:00.040Z,18.98
2017-02-26T07:30:09.895Z,19
2017-02-26T07:31:19.445Z,18.96
2017-02-26T07:32:29.763Z,19.05
2017-02-26T07:33:40.095Z,18.94
2017-02-26T07:34:50.047Z,19.04
2017-02-26T07:36:00.626Z,18.92
2017-02-26T07:37:10.207Z,19.05
2017-02-26T07:38:20.555Z,18.96
2017-02-26T07:39:31.829Z,18.96
2017-02-26T07:40:42.187Z,19.01
2017-02-26T07:41:52.377Z,18.98
2017-02-26T07:43:02.749Z,18.92
2017-02-26T07:44:13.090Z,19
2017-02-26T07:45:23.013Z,18.98
2017-02-26T07:46:33.753Z,19.04
2017-02-26T07:47:44.409Z,19.01
2017-02-26T07:48:54.735Z,19.04
2017-02-26T07:50:04.685Z,18.98
2017-02-26T07:51:14.637Z,19.05
2017-02-26T07:52:25.381Z,19
2017-02-26T07:53:35.566Z,18.98
2017-02-26T07:54:46.328Z,19
2017-02-26T07:55:56.663Z,19.04
2017-02-26T07:57:06.980Z,19.04
2017-02-26T07:58:16.923Z,19.01
2017-02-26T07:59:27.563Z,18.98
2017-02-26T08:00:38.301Z,19.05
2017-02-26T08:01:48.619Z,19.04
2017-02-26T08:02:58.954Z,19.04
2017-02-26T08:04:09.806Z,19.01
2017-02-26T08:05:20.396Z,19.01
2017-02-26T08:06:30.331Z,19.01
2017-02-26T08:07:40.313Z,18.97
2017-02-26T08:08:50.271Z,18.96
2017-02-26T08:09:59.838Z,19.09
2017-02-26T08:11:10.089Z,19
2017-02-26T08:12:20.052Z,18.97
2017-02-26T08:13:29.998Z,19
2017-02-26T08:14:39.934Z,19.09
2017-02-26T08:15:50.279Z,18.98
2017-02-26T08:17:01.265Z,19.05
2017-02-26T08:18:12.001Z,18.97
2017-02-26T08:19:22.327Z,18.91
2017-02-26T08:20:32.666Z,18.97
2017-02-26T08:21:43.003Z,19.08
2017-02-26T08:22:52.817Z,19.07
2017-02-26T08:24:03.169Z,19
2017-02-26T08:25:13.906Z,18.98
2017-02-26T08:26:24.260Z,18.98
2017-02-26T08:27:34.593Z,18.96
2017-02-26T08:28:45.233Z,18.98
2017-02-26T08:29:55.543Z,19.04
2017-02-26T08:31:06.315Z,18.97
2017-02-26T08:32:16.637Z,19
2017-02-26T08:33:27.226Z,18.97
2017-02-26T08:34:38.206Z,18.98
2017-02-26T08:35:48.545Z,19.04
2017-02-26T08:36:59.255Z,18.97
2017-02-26T08:38:09.604Z,18.98
2017-02-26T08:39:19.950Z,19.01
2017-02-26T08:40:29.725Z,18.98
2017-02-26T08:41:40.455Z,19.04
2017-02-26T08:42:51.178Z,19.04
2017-02-26T08:44:01.929Z,19.01
2017-02-26T08:45:11.901Z,19.01
2017-02-26T08:46:22.916Z,18.96
2017-02-26T08:47:33.239Z,19.01
2017-02-26T08:48:43.589Z,18.97
2017-02-26T08:49:53.140Z,19.08
2017-02-26T08:51:03.488Z,18.97
2017-02-26T08:52:14.075Z,19.01
2017-02-26T08:53:24.430Z,18.96
2017-02-26T08:54:34.764Z,19.04
2017-02-26T08:55:45.481Z,19.07
2017-02-26T08:56:55.835Z,19
2017-02-26T08:58:06.453Z,19.04
2017-02-26T08:59:16.397Z,19.08
2017-02-26T09:00:27.121Z,19.05
2017-02-26T09:01:37.055Z,19.04
2017-02-26T09:02:47.014Z,19
2017-02-26T09:03:56.811Z,19.01
2017-02-26T09:05:07.149Z,19.07
2017-02-26T09:06:17.483Z,18.97
2017-02-26T09:07:27.821Z,19.05
2017-02-26T09:08:38.551Z,19.01
2017-02-26T09:09:48.388Z,18.98
2017-02-26T09:10:58.716Z,19
2017-02-26T09:12:09.045Z,19.05
2017-02-26T09:13:19.403Z,19
2017-02-26T09:14:29.343Z,19.01
2017-02-26T09:15:40.314Z,19.05
2017-02-26T09:16:50.252Z,19.05
2017-02-26T09:18:00.660Z,19.07
2017-02-26T09:19:10.631Z,19.08
2017-02-26T09:20:20.965Z,19.04
2017-02-26T09:21:31.957Z,19.08
2017-02-26T09:22:42.277Z,19.04
2017-02-26T09:23:53.012Z,19.01
2017-02-26T09:25:02.987Z,19
2017-02-26T09:26:12.932Z,19.07
2017-02-26T09:27:23.518Z,19.07
2017-02-26T09:28:33.063Z,19.05
2017-02-26T09:29:43.415Z,19.07
2017-02-26T09:30:53.354Z,19.07
2017-02-26T09:32:04.104Z,19.08
2017-02-26T09:33:15.092Z,19.12
2017-02-26T09:34:25.041Z,19.05
2017-02-26T09:35:35.809Z,19.08
2017-02-26T09:36:46.153Z,19.08
2017-02-26T09:37:56.501Z,19.08
2017-02-26T09:39:07.141Z,19.05
2017-02-26T09:40:17.092Z,19.09
2017-02-26T09:41:27.041Z,19.11
2017-02-26T09:42:37.380Z,19.11
2017-02-26T09:43:48.135Z,19.09
2017-02-26T09:44:58.334Z,19.05
2017-02-26T09:46:08.702Z,19.11
2017-02-26T09:47:19.432Z,19.04
2017-02-26T09:48:29.845Z,19.08
2017-02-26T09:49:40.606Z,19.08
2017-02-26T09:50:51.210Z,19.08
2017-02-26T09:52:01.151Z,19.04
2017-02-26T09:53:11.914Z,19.07
2017-02-26T09:54:21.864Z,19.08
2017-02-26T09:55:32.595Z,19.07
2017-02-26T09:56:43.272Z,19.08
2017-02-26T09:57:53.628Z,19.11
2017-02-26T09:59:04.005Z,19.01
2017-02-26T10:00:14.338Z,19.07
2017-02-26T10:01:24.686Z,19.08
2017-02-26T10:02:34.913Z,19.11
2017-02-26T10:03:45.282Z,19.05
2017-02-26T10:04:56.123Z,19.08
2017-02-26T10:06:06.483Z,19.04
2017-02-26T10:07:17.253Z,19.11
2017-02-26T10:08:28.274Z,19.19
2017-02-26T10:09:38.628Z,19.19
2017-02-26T10:10:48.996Z,19.19
2017-02-26T10:11:59.754Z,19.19
2017-02-26T10:13:10.126Z,19.16
2017-02-26T10:14:20.756Z,19.19
2017-02-26T10:15:31.144Z,19.17
2017-02-26T10:16:41.138Z,19.12
2017-02-26T10:17:50.326Z,19.15
2017-02-26T10:19:00.674Z,19.15
2017-02-26T10:20:10.496Z,19.19
2017-02-26T10:21:21.238Z,19.15
2017-02-26T10:22:31.590Z,19.17
2017-02-26T10:23:41.947Z,19.17
2017-02-26T10:24:52.676Z,19.17
2017-02-26T10:26:03.310Z,19.15
2017-02-26T10:27:14.057Z,19.16
2017-02-26T10:28:23.986Z,19.2
2017-02-26T10:29:34.721Z,19.17
2017-02-26T10:30:45.083Z,19.15
2017-02-26T10:31:55.678Z,19.17
2017-02-26T10:33:06.017Z,19.23
2017-02-26T10:34:15.594Z,19.2
2017-02-26T10:35:26.365Z,19.19
2017-02-26T10:36:37.118Z,19.19
2017-02-26T10:37:47.349Z,19.2
2017-02-26T10:38:57.306Z,19.2
2017-02-26T10:40:06.858Z,19.15
2017-02-26T10:41:17.211Z,19.16
2017-02-26T10:42:27.157Z,19.2
2017-02-26T10:43:37.426Z,19.2
2017-02-26T10:44:47.355Z,19.2
2017-02-26T10:45:57.695Z,19.22
2017-02-26T10:47:08.433Z,19.17
2017-02-26T10:48:18.388Z,19.19
2017-02-26T10:49:28.990Z,19.22
2017-02-26T10:50:39.764Z,19.19
2017-02-26T10:51:50.510Z,19.17
2017-02-26T10:53:00.884Z,19.16
2017-02-26T10:54:11.643Z,19.12
2017-02-26T10:55:22.687Z,19.15
2017-02-26T10:56:33.051Z,19.19
2017-02-26T10:57:43.846Z,19.19
2017-02-26T10:58:54.197Z,19.22
2017-02-26T11:00:04.959Z,19.19
2017-02-26T11:01:15.616Z,19.26
2017-02-26T11:02:26.371Z,19.27
2017-02-26T11:03:36.729Z,19.29
2017-02-26T11:04:47.543Z,19.2
2017-02-26T11:05:57.882Z,19.17
2017-02-26T11:07:08.487Z,19.19
2017-02-26T11:08:18.832Z,19.22
2017-02-26T11:09:29.572Z,19.27
2017-02-26T11:10:40.338Z,19.22
2017-02-26T11:11:50.694Z,19.17
2017-02-26T11:13:01.335Z,19.22
2017-02-26T11:14:12.115Z,19.23
2017-02-26T11:15:22.901Z,19.17
2017-02-26T11:16:32.884Z,19.26
2017-02-26T11:17:43.260Z,19.23
2017-02-26T11:18:54.280Z,19.27
2017-02-26T11:20:04.631Z,19.26
2017-02-26T11:21:15.391Z,19.24
2017-02-26T11:22:25.753Z,19.23
2017-02-26T11:23:35.751Z,19.19
2017-02-26T11:24:45.566Z,19.24
2017-02-26T11:25:56.335Z,19.23
2017-02-26T11:27:06.709Z,19.19
2017-02-26T11:28:17.101Z,19.23
2017-02-26T11:29:27.898Z,19.26
2017-02-26T11:30:38.502Z,19.22
2017-02-26T11:31:48.885Z,19.22
2017-02-26T11:32:59.658Z,19.27
2017-02-26T11:34:10.010Z,19.23
2017-02-26T11:35:20.378Z,19.24
2017-02-26T11:36:31.388Z,19.23
2017-02-26T11:37:42.148Z,19.17
2017-02-26T11:38:52.936Z,19.26
2017-02-26T11:40:03.692Z,19.22
2017-02-26T11:41:14.796Z,19.24
2017-02-26T11:42:25.414Z,19.26
2017-02-26T11:43:36.157Z,19.23
2017-02-26T11:44:46.922Z,19.26
2017-02-26T11:45:57.693Z,19.24
2017-02-26T11:47:08.052Z,19.2
2017-02-26T11:48:19.072Z,19.29
2017-02-26T11:49:29.427Z,19.27
2017-02-26T11:50:40.195Z,19.27
2017-02-26T11:51:50.157Z,19.32
2017-02-26T11:53:00.105Z,19.24
2017-02-26T11:54:10.714Z,19.2
2017-02-26T11:55:21.096Z,19.27
2017-02-26T11:56:31.892Z,19.17
2017-02-26T11:57:42.660Z,19.23
2017-02-26T11:58:53.429Z,19.27
2017-02-26T12:00:04.446Z,19.23
2017-02-26T12:01:14.433Z,19.23
2017-02-26T12:02:24.800Z,19.24
2017-02-26T12:03:35.578Z,19.35
2017-02-26T12:04:45.938Z,19.29
2017-02-26T12:05:56.943Z,19.26
2017-02-26T12:07:06.936Z,19.22
2017-02-26T12:08:17.286Z,19.27
2017-02-26T12:09:28.029Z,19.26
2017-02-26T12:10:37.623Z,19.27
2017-02-26T12:11:48.660Z,19.26
2017-02-26T12:12:59.061Z,19.23
2017-02-26T12:14:10.123Z,19.2
2017-02-26T12:15:20.106Z,19.24
2017-02-26T12:16:30.885Z,19.3
2017-02-26T12:17:41.924Z,19.24
2017-02-26T12:18:52.300Z,19.3
2017-02-26T12:20:03.069Z,19.3
2017-02-26T12:21:13.812Z,19.24
2017-02-26T12:22:23.761Z,19.29
2017-02-26T12:23:34.033Z,19.32
2017-02-26T12:24:44.408Z,19.27
2017-02-26T12:25:55.199Z,19.29
2017-02-26T12:27:05.563Z,19.27
2017-02-26T12:28:16.290Z,19.27
2017-02-26T12:29:27.309Z,19.27
2017-02-26T12:30:38.061Z,19.29
2017-02-26T12:31:48.828Z,19.3
2017-02-26T12:32:59.627Z,19.29
2017-02-26T12:34:09.175Z,19.37
2017-02-26T12:35:19.813Z,19.35
2017-02-26T12:36:30.557Z,19.29
2017-02-26T12:37:41.312Z,19.29
2017-02-26T12:38:52.074Z,19.29
2017-02-26T12:40:02.825Z,19.37
2017-02-26T12:41:13.495Z,19.34
2017-02-26T12:42:24.243Z,19.23
2017-02-26T12:43:34.959Z,19.34
2017-02-26T12:44:45.321Z,19.3
2017-02-26T12:45:55.316Z,19.3
2017-02-26T12:47:05.920Z,19.32
2017-02-26T12:48:16.697Z,19.27
2017-02-26T12:49:26.664Z,19.32
2017-02-26T12:50:36.668Z,19.34
2017-02-26T12:51:47.427Z,19.32
2017-02-26T12:52:58.445Z,19.27
2017-02-26T12:54:08.847Z,19.32
2017-02-26T12:55:19.628Z,19.29
2017-02-26T12:56:30.430Z,19.29
2017-02-26T12:57:40.389Z,19.29
2017-02-26T12:58:51.452Z,19.34
2017-02-26T13:00:01.823Z,19.34
2017-02-26T13:01:12.587Z,19.32
2017-02-26T13:02:23.344Z,19.3
2017-02-26T13:03:33.343Z,19.3
2017-02-26T13:04:44.014Z,19.27
2017-02-26T13:05:54.746Z,19.32
2017-02-26T13:07:05.361Z,19.35
2017-02-26T13:08:16.105Z,19.32
2017-02-26T13:09:26.457Z,19.3
2017-02-26T13:10:37.112Z,19.35
2017-02-26T13:11:47.862Z,19.37
2017-02-26T13:12:58.632Z,19.29
2017-02-26T13:14:09.378Z,19.35
2017-02-26T13:15:20.142Z,19.32
2017-02-26T13:16:31.197Z,19.27
2017-02-26T13:17:41.531Z,19.37
2017-02-26T13:18:51.481Z,19.3
2017-02-26T13:20:01.850Z,19.3
2017-02-26T13:21:12.619Z,19.34
2017-02-26T13:22:23.709Z,19.27
2017-02-26T13:23:34.100Z,19.29
2017-02-26T13:24:44.838Z,19.38
2017-02-26T13:25:55.588Z,19.37
2017-02-26T13:27:06.362Z,19.41
2017-02-26T13:28:17.018Z,19.3
2017-02-26T13:29:27.824Z,19.37
2017-02-26T13:30:37.404Z,19.3
2017-02-26T13:31:47.773Z,19.42
2017-02-26T13:32:58.175Z,19.42
2017-02-26T13:34:08.387Z,19.42
2017-02-26T13:35:18.761Z,19.38
2017-02-26T13:36:29.532Z,19.32
2017-02-26T13:37:39.891Z,19.39
2017-02-26T13:38:49.855Z,19.38
2017-02-26T13:40:00.474Z,19.32
2017-02-26T13:41:11.202Z,19.37
2017-02-26T13:42:21.963Z,19.38
2017-02-26T13:43:32.721Z,19.3
2017-02-26T13:44:43.477Z,19.38
2017-02-26T13:45:54.578Z,19.34
2017-02-26T13:47:04.957Z,19.32
2017-02-26T13:48:15.703Z,19.37
2017-02-26T13:49:26.458Z,19.38
2017-02-26T13:50:37.232Z,19.35
2017-02-26T13:51:47.840Z,19.3
2017-02-26T13:52:58.612Z,19.38
2017-02-26T13:54:08.993Z,19.32
2017-02-26T13:55:19.337Z,19.37
2017-02-26T13:56:30.100Z,19.34
2017-02-26T13:57:41.171Z,19.34
2017-02-26T13:58:51.938Z,19.35
2017-02-26T14:00:02.295Z,19.35
2017-02-26T14:01:13.061Z,19.38
2017-02-26T14:02:23.825Z,19.34
2017-02-26T14:03:35.063Z,19.37
2017-02-26T14:04:45.433Z,19.39
2017-02-26T14:05:56.193Z,19.37
2017-02-26T14:07:06.573Z,19.44
2017-02-26T14:08:17.381Z,19.39
2017-02-26T14:09:27.974Z,19.41
2017-02-26T14:10:38.345Z,19.37
2017-02-26T14:11:48.704Z,19.42
2017-02-26T14:12:59.484Z,19.39
2017-02-26T14:14:10.252Z,19.38
2017-02-26T14:15:20.875Z,19.39
2017-02-26T14:16:30.837Z,19.42
2017-02-26T14:17:41.204Z,19.45
2017-02-26T14:18:51.979Z,19.39
2017-02-26T14:20:02.499Z,19.47
2017-02-26T14:21:13.503Z,19.48
2017-02-26T14:22:23.462Z,19.42
2017-02-26T14:23:33.836Z,19.42
2017-02-26T14:24:44.592Z,19.47
2017-02-26T14:25:54.949Z,19.45
2017-02-26T14:27:05.997Z,19.48
2017-02-26T14:28:16.725Z,19.48
2017-02-26T14:29:27.450Z,19.45
2017-02-26T14:30:37.789Z,19.47
2017-02-26T14:31:48.139Z,19.45
2017-02-26T14:32:58.747Z,19.52
2017-02-26T14:34:09.075Z,19.44
2017-02-26T14:35:19.028Z,19.42
2017-02-26T14:36:29.799Z,19.47
2017-02-26T14:37:40.580Z,19.55
2017-02-26T14:38:51.191Z,19.47
2017-02-26T14:40:01.550Z,19.52
2017-02-26T14:41:12.327Z,19.49
2017-02-26T14:42:22.280Z,19.48
2017-02-26T14:43:32.287Z,19.47
2017-02-26T14:44:42.887Z,19.44
2017-02-26T14:45:53.662Z,19.49
2017-02-26T14:47:04.400Z,19.52
2017-02-26T14:48:14.352Z,19.45
2017-02-26T14:49:24.691Z,19.45
2017-02-26T14:50:34.951Z,19.48
2017-02-26T14:51:45.734Z,19.49
2017-02-26T14:52:56.123Z,19.41
2017-02-26T14:54:06.885Z,19.37
2017-02-26T14:55:17.256Z,19.47
2017-02-26T14:56:27.537Z,19.42
2017-02-26T14:57:38.263Z,19.41
2017-02-26T14:58:48.614Z,19.48
2017-02-26T14:59:59.034Z,19.38
2017-02-26T15:01:09.379Z,19.39
2017-02-26T15:02:20.460Z,19.42
2017-02-26T15:03:31.220Z,19.41
2017-02-26T15:04:41.175Z,19.45
2017-02-26T15:05:51.528Z,19.48
2017-02-26T15:07:01.085Z,19.42
2017-02-26T15:08:11.335Z,19.48
2017-02-26T15:09:21.787Z,19.45
2017-02-26T15:10:32.180Z,19.44
2017-02-26T15:11:42.155Z,19.38
2017-02-26T15:12:52.913Z,19.41